sensor_id;sensor_type;location;lat;lon;timestamp;P1;durP1;ratioP1;P2;durP2;ratioP2
4835;SDS011;66719;51.226;6.902;2023-03-01T00:01:23;13.77;;;6.03;;
4835;SDS011;66719;51.226;6.902;2023-03-01T00:03:52;15.47;;;6.53;;
4835;SDS011;66719;51.226;6.902;2023-03-01T00:06:20;15.47;;;5.90;;
4835;SDS011;66719;51.226;6.902;2023-03-01T00:08:47;14.53;;;6.13;;
4835;SDS011;66719;51.226;6.902;2023-03-01T00:11:24;17.53;;;6.90;;
4835;SDS011;66719;51.226;6.902;2023-03-01T00:13:54;15.03;;;6.33;;
4835;SDS011;66719;51.226;6.902;2023-03-01T00:16:24;15.00;;;6.30;;
4835;SDS011;66719;51.226;6.902;2023-03-01T00:18:53;14.70;;;6.73;;
4835;SDS011;66719;51.226;6.902;2023-03-01T00:21:21;13.80;;;5.70;;
4835;SDS011;66719;51.226;6.902;2023-03-01T00:23:49;13.53;;;6.30;;
4835;SDS011;66719;51.226;6.902;2023-03-01T00:26:16;16.53;;;6.53;;
4835;SDS011;66719;51.226;6.902;2023-03-01T00:28:44;15.90;;;6.80;;
4835;SDS011;66719;51.226;6.902;2023-03-01T00:31:12;15.47;;;6.43;;
4835;SDS011;66719;51.226;6.902;2023-03-01T00:33:40;16.47;;;6.80;;
4835;SDS011;66719;51.226;6.902;2023-03-01T00:36:07;15.83;;;6.97;;
4835;SDS011;66719;51.226;6.902;2023-03-01T00:38:36;16.07;;;7.03;;
4835;SDS011;66719;51.226;6.902;2023-03-01T00:41:07;16.03;;;6.73;;
4835;SDS011;66719;51.226;6.902;2023-03-01T00:43:35;15.27;;;6.77;;
4835;SDS011;66719;51.226;6.902;2023-03-01T00:46:05;17.20;;;6.80;;
4835;SDS011;66719;51.226;6.902;2023-03-01T00:48:34;15.13;;;5.90;;
4835;SDS011;66719;51.226;6.902;2023-03-01T00:51:21;15.93;;;6.43;;
4835;SDS011;66719;51.226;6.902;2023-03-01T00:53:53;16.37;;;6.77;;
4835;SDS011;66719;51.226;6.902;2023-03-01T00:56:23;13.20;;;6.00;;
4835;SDS011;66719;51.226;6.902;2023-03-01T00:58:49;25.83;;;7.00;;
4835;SDS011;66719;51.226;6.902;2023-03-01T01:01:21;16.80;;;7.00;;
4835;SDS011;66719;51.226;6.902;2023-03-01T01:06:19;14.27;;;6.37;;
4835;SDS011;66719;51.226;6.902;2023-03-01T01:08:50;12.80;;;5.97;;
4835;SDS011;66719;51.226;6.902;2023-03-01T01:11:18;16.93;;;6.80;;
4835;SDS011;66719;51.226;6.902;2023-03-01T01:13:45;14.97;;;6.60;;
4835;SDS011;66719;51.226;6.902;2023-03-01T01:16:13;13.67;;;6.40;;
4835;SDS011;66719;51.226;6.902;2023-03-01T01:18:40;18.20;;;6.90;;
4835;SDS011;66719;51.226;6.902;2023-03-01T01:21:07;14.20;;;6.50;;
4835;SDS011;66719;51.226;6.902;2023-03-01T01:23:36;15.90;;;7.17;;
4835;SDS011;66719;51.226;6.902;2023-03-01T01:26:05;14.77;;;6.40;;
4835;SDS011;66719;51.226;6.902;2023-03-01T01:28:33;14.17;;;6.27;;
4835;SDS011;66719;51.226;6.902;2023-03-01T01:31:00;15.43;;;6.17;;
4835;SDS011;66719;51.226;6.902;2023-03-01T01:33:26;14.80;;;7.00;;
4835;SDS011;66719;51.226;6.902;2023-03-01T01:35:53;13.90;;;6.13;;
4835;SDS011;66719;51.226;6.902;2023-03-01T01:38:20;17.70;;;7.60;;
4835;SDS011;66719;51.226;6.902;2023-03-01T01:40:48;17.13;;;7.33;;
4835;SDS011;66719;51.226;6.902;2023-03-01T01:43:24;15.70;;;7.40;;
4835;SDS011;66719;51.226;6.902;2023-03-01T01:45:57;18.87;;;7.80;;
4835;SDS011;66719;51.226;6.902;2023-03-01T01:48:39;20.57;;;7.90;;
4835;SDS011;66719;51.226;6.902;2023-03-01T01:51:12;17.63;;;6.50;;
4835;SDS011;66719;51.226;6.902;2023-03-01T01:53:41;18.20;;;7.23;;
4835;SDS011;66719;51.226;6.902;2023-03-01T01:56:11;21.13;;;7.60;;
4835;SDS011;66719;51.226;6.902;2023-03-01T01:58:40;21.10;;;7.77;;
4835;SDS011;66719;51.226;6.902;2023-03-01T02:01:09;17.77;;;7.57;;
4835;SDS011;66719;51.226;6.902;2023-03-01T02:03:37;19.80;;;7.50;;
4835;SDS011;66719;51.226;6.902;2023-03-01T02:08:45;17.43;;;8.00;;
4835;SDS011;66719;51.226;6.902;2023-03-01T02:11:14;17.50;;;7.60;;
4835;SDS011;66719;51.226;6.902;2023-03-01T02:13:41;16.87;;;7.23;;
4835;SDS011;66719;51.226;6.902;2023-03-01T02:16:09;17.47;;;7.40;;
4835;SDS011;66719;51.226;6.902;2023-03-01T02:18:39;16.93;;;6.67;;
4835;SDS011;66719;51.226;6.902;2023-03-01T02:23:53;16.00;;;7.30;;
4835;SDS011;66719;51.226;6.902;2023-03-01T02:29:00;18.00;;;7.13;;
4835;SDS011;66719;51.226;6.902;2023-03-01T02:31:26;17.60;;;6.43;;
4835;SDS011;66719;51.226;6.902;2023-03-01T02:34:09;16.67;;;7.47;;
4835;SDS011;66719;51.226;6.902;2023-03-01T02:36:49;16.40;;;7.17;;
4835;SDS011;66719;51.226;6.902;2023-03-01T02:39:30;14.90;;;6.70;;
4835;SDS011;66719;51.226;6.902;2023-03-01T02:42:00;14.90;;;6.60;;
4835;SDS011;66719;51.226;6.902;2023-03-01T02:44:28;19.47;;;8.47;;
4835;SDS011;66719;51.226;6.902;2023-03-01T02:46:55;16.50;;;7.30;;
4835;SDS011;66719;51.226;6.902;2023-03-01T02:54:37;17.17;;;7.00;;
4835;SDS011;66719;51.226;6.902;2023-03-01T02:57:38;16.40;;;7.20;;
4835;SDS011;66719;51.226;6.902;2023-03-01T03:00:19;16.90;;;7.40;;
4835;SDS011;66719;51.226;6.902;2023-03-01T03:02:49;17.37;;;8.07;;
4835;SDS011;66719;51.226;6.902;2023-03-01T03:05:19;18.43;;;8.50;;
4835;SDS011;66719;51.226;6.902;2023-03-01T03:07:48;16.67;;;7.87;;
4835;SDS011;66719;51.226;6.902;2023-03-01T03:10:26;17.63;;;7.80;;
4835;SDS011;66719;51.226;6.902;2023-03-01T03:12:56;16.70;;;8.47;;
4835;SDS011;66719;51.226;6.902;2023-03-01T03:15:26;21.17;;;8.90;;
4835;SDS011;66719;51.226;6.902;2023-03-01T03:17:53;18.93;;;8.73;;
4835;SDS011;66719;51.226;6.902;2023-03-01T03:20:21;21.70;;;8.90;;
4835;SDS011;66719;51.226;6.902;2023-03-01T03:22:50;18.13;;;8.23;;
4835;SDS011;66719;51.226;6.902;2023-03-01T03:25:18;19.30;;;9.67;;
4835;SDS011;66719;51.226;6.902;2023-03-01T03:27:46;20.60;;;9.03;;
4835;SDS011;66719;51.226;6.902;2023-03-01T03:30:15;17.03;;;8.40;;
4835;SDS011;66719;51.226;6.902;2023-03-01T03:32:44;16.30;;;8.40;;
4835;SDS011;66719;51.226;6.902;2023-03-01T03:35:25;18.03;;;9.20;;
4835;SDS011;66719;51.226;6.902;2023-03-01T03:37:52;17.90;;;8.50;;
4835;SDS011;66719;51.226;6.902;2023-03-01T03:42:57;19.97;;;9.23;;
4835;SDS011;66719;51.226;6.902;2023-03-01T03:45:24;16.33;;;8.43;;
4835;SDS011;66719;51.226;6.902;2023-03-01T03:47:50;18.30;;;9.30;;
4835;SDS011;66719;51.226;6.902;2023-03-01T03:50:17;20.50;;;9.67;;
4835;SDS011;66719;51.226;6.902;2023-03-01T03:52:44;17.40;;;8.80;;
4835;SDS011;66719;51.226;6.902;2023-03-01T03:55:11;19.30;;;9.20;;
4835;SDS011;66719;51.226;6.902;2023-03-01T03:57:41;22.87;;;9.73;;
4835;SDS011;66719;51.226;6.902;2023-03-01T04:00:10;21.23;;;9.50;;
4835;SDS011;66719;51.226;6.902;2023-03-01T04:02:43;19.80;;;9.30;;
4835;SDS011;66719;51.226;6.902;2023-03-01T04:05:11;17.60;;;8.70;;
4835;SDS011;66719;51.226;6.902;2023-03-01T04:07:40;20.93;;;10.00;;
4835;SDS011;66719;51.226;6.902;2023-03-01T04:10:12;18.93;;;9.10;;
4835;SDS011;66719;51.226;6.902;2023-03-01T04:12:40;19.07;;;9.50;;
4835;SDS011;66719;51.226;6.902;2023-03-01T04:15:09;19.37;;;9.27;;
4835;SDS011;66719;51.226;6.902;2023-03-01T04:17:41;20.83;;;10.03;;
4835;SDS011;66719;51.226;6.902;2023-03-01T04:20:13;20.40;;;9.80;;
4835;SDS011;66719;51.226;6.902;2023-03-01T04:22:57;19.50;;;9.93;;
4835;SDS011;66719;51.226;6.902;2023-03-01T04:25:24;22.63;;;8.90;;
4835;SDS011;66719;51.226;6.902;2023-03-01T04:27:52;19.70;;;10.13;;
4835;SDS011;66719;51.226;6.902;2023-03-01T04:30:18;18.20;;;8.87;;
4835;SDS011;66719;51.226;6.902;2023-03-01T04:32:45;20.13;;;9.60;;
4835;SDS011;66719;51.226;6.902;2023-03-01T04:35:11;24.13;;;10.00;;
4835;SDS011;66719;51.226;6.902;2023-03-01T04:37:38;22.87;;;9.93;;
4835;SDS011;66719;51.226;6.902;2023-03-01T04:40:04;18.70;;;9.83;;
4835;SDS011;66719;51.226;6.902;2023-03-01T04:42:38;19.37;;;10.00;;
4835;SDS011;66719;51.226;6.902;2023-03-01T04:45:05;19.10;;;10.10;;
4835;SDS011;66719;51.226;6.902;2023-03-01T04:47:42;23.33;;;10.47;;
4835;SDS011;66719;51.226;6.902;2023-03-01T04:50:10;19.20;;;9.90;;
4835;SDS011;66719;51.226;6.902;2023-03-01T04:52:38;20.30;;;9.87;;
4835;SDS011;66719;51.226;6.902;2023-03-01T04:55:04;20.57;;;10.50;;
4835;SDS011;66719;51.226;6.902;2023-03-01T04:57:32;19.20;;;9.73;;
4835;SDS011;66719;51.226;6.902;2023-03-01T04:59:59;19.00;;;9.20;;
4835;SDS011;66719;51.226;6.902;2023-03-01T05:02:25;19.37;;;9.50;;
4835;SDS011;66719;51.226;6.902;2023-03-01T05:04:52;18.40;;;9.90;;
4835;SDS011;66719;51.226;6.902;2023-03-01T05:07:23;21.90;;;9.50;;
4835;SDS011;66719;51.226;6.902;2023-03-01T05:09:50;18.80;;;10.00;;
4835;SDS011;66719;51.226;6.902;2023-03-01T05:12:20;22.87;;;9.83;;
4835;SDS011;66719;51.226;6.902;2023-03-01T05:14:47;20.40;;;10.30;;
4835;SDS011;66719;51.226;6.902;2023-03-01T05:17:13;21.07;;;9.87;;
4835;SDS011;66719;51.226;6.902;2023-03-01T05:19:40;19.60;;;10.27;;
4835;SDS011;66719;51.226;6.902;2023-03-01T05:22:08;19.17;;;9.23;;
4835;SDS011;66719;51.226;6.902;2023-03-01T05:24:35;18.27;;;9.53;;
4835;SDS011;66719;51.226;6.902;2023-03-01T05:27:02;22.83;;;9.90;;
4835;SDS011;66719;51.226;6.902;2023-03-01T05:29:30;17.67;;;9.40;;
4835;SDS011;66719;51.226;6.902;2023-03-01T05:32:01;20.43;;;10.40;;
4835;SDS011;66719;51.226;6.902;2023-03-01T05:34:29;21.27;;;10.47;;
4835;SDS011;66719;51.226;6.902;2023-03-01T05:36:58;20.33;;;9.93;;
4835;SDS011;66719;51.226;6.902;2023-03-01T05:39:26;20.70;;;10.53;;
4835;SDS011;66719;51.226;6.902;2023-03-01T05:41:54;19.77;;;10.00;;
4835;SDS011;66719;51.226;6.902;2023-03-01T05:44:22;18.63;;;9.07;;
4835;SDS011;66719;51.226;6.902;2023-03-01T05:46:49;21.83;;;9.63;;
4835;SDS011;66719;51.226;6.902;2023-03-01T05:49:16;19.87;;;10.27;;
4835;SDS011;66719;51.226;6.902;2023-03-01T05:51:43;22.60;;;10.47;;
4835;SDS011;66719;51.226;6.902;2023-03-01T05:54:15;19.50;;;9.90;;
4835;SDS011;66719;51.226;6.902;2023-03-01T05:56:42;18.33;;;9.50;;
4835;SDS011;66719;51.226;6.902;2023-03-01T05:59:09;20.73;;;9.60;;
4835;SDS011;66719;51.226;6.902;2023-03-01T06:01:36;22.10;;;9.77;;
4835;SDS011;66719;51.226;6.902;2023-03-01T06:04:03;19.70;;;9.17;;
4835;SDS011;66719;51.226;6.902;2023-03-01T06:06:34;21.67;;;10.47;;
4835;SDS011;66719;51.226;6.902;2023-03-01T06:09:06;20.83;;;9.77;;
4835;SDS011;66719;51.226;6.902;2023-03-01T06:11:35;21.13;;;10.63;;
4835;SDS011;66719;51.226;6.902;2023-03-01T06:14:03;18.03;;;9.53;;
4835;SDS011;66719;51.226;6.902;2023-03-01T06:16:30;18.83;;;9.70;;
4835;SDS011;66719;51.226;6.902;2023-03-01T06:18:57;20.70;;;10.20;;
4835;SDS011;66719;51.226;6.902;2023-03-01T06:21:23;26.13;;;10.57;;
4835;SDS011;66719;51.226;6.902;2023-03-01T06:23:49;21.23;;;9.70;;
4835;SDS011;66719;51.226;6.902;2023-03-01T06:26:16;18.57;;;9.57;;
4835;SDS011;66719;51.226;6.902;2023-03-01T06:28:42;21.00;;;10.93;;
4835;SDS011;66719;51.226;6.902;2023-03-01T06:31:12;22.00;;;10.67;;
4835;SDS011;66719;51.226;6.902;2023-03-01T06:33:39;20.43;;;10.37;;
4835;SDS011;66719;51.226;6.902;2023-03-01T06:36:06;23.07;;;10.80;;
4835;SDS011;66719;51.226;6.902;2023-03-01T06:38:33;24.20;;;11.50;;
4835;SDS011;66719;51.226;6.902;2023-03-01T06:40:59;20.70;;;10.67;;
4835;SDS011;66719;51.226;6.902;2023-03-01T06:43:27;20.40;;;11.00;;
4835;SDS011;66719;51.226;6.902;2023-03-01T06:45:54;26.37;;;12.27;;
4835;SDS011;66719;51.226;6.902;2023-03-01T06:48:20;25.90;;;11.87;;
4835;SDS011;66719;51.226;6.902;2023-03-01T06:50:49;24.50;;;12.20;;
4835;SDS011;66719;51.226;6.902;2023-03-01T06:53:16;25.53;;;11.63;;
4835;SDS011;66719;51.226;6.902;2023-03-01T06:55:42;27.60;;;12.83;;
4835;SDS011;66719;51.226;6.902;2023-03-01T06:58:09;22.77;;;12.23;;
4835;SDS011;66719;51.226;6.902;2023-03-01T07:00:35;29.50;;;12.13;;
4835;SDS011;66719;51.226;6.902;2023-03-01T07:03:02;23.40;;;11.53;;
4835;SDS011;66719;51.226;6.902;2023-03-01T07:05:29;27.17;;;11.90;;
4835;SDS011;66719;51.226;6.902;2023-03-01T07:07:56;23.70;;;11.93;;
4835;SDS011;66719;51.226;6.902;2023-03-01T07:10:23;28.20;;;12.93;;
4835;SDS011;66719;51.226;6.902;2023-03-01T07:12:49;22.30;;;11.33;;
4835;SDS011;66719;51.226;6.902;2023-03-01T07:15:16;19.50;;;11.40;;
4835;SDS011;66719;51.226;6.902;2023-03-01T07:17:43;22.73;;;10.87;;
4835;SDS011;66719;51.226;6.902;2023-03-01T07:20:10;23.13;;;12.33;;
4835;SDS011;66719;51.226;6.902;2023-03-01T07:22:39;22.60;;;11.17;;
4835;SDS011;66719;51.226;6.902;2023-03-01T07:25:07;20.77;;;10.53;;
4835;SDS011;66719;51.226;6.902;2023-03-01T07:27:33;22.73;;;11.60;;
4835;SDS011;66719;51.226;6.902;2023-03-01T07:30:00;24.97;;;12.43;;
4835;SDS011;66719;51.226;6.902;2023-03-01T07:32:27;21.43;;;11.63;;
4835;SDS011;66719;51.226;6.902;2023-03-01T07:34:53;21.87;;;11.73;;
4835;SDS011;66719;51.226;6.902;2023-03-01T07:37:20;26.90;;;13.13;;
4835;SDS011;66719;51.226;6.902;2023-03-01T07:39:46;24.60;;;10.97;;
4835;SDS011;66719;51.226;6.902;2023-03-01T07:42:13;23.83;;;11.83;;
4835;SDS011;66719;51.226;6.902;2023-03-01T07:44:39;25.10;;;12.17;;
4835;SDS011;66719;51.226;6.902;2023-03-01T07:47:05;22.70;;;11.43;;
4835;SDS011;66719;51.226;6.902;2023-03-01T07:49:32;22.57;;;11.80;;
4835;SDS011;66719;51.226;6.902;2023-03-01T07:51:58;22.93;;;12.83;;
4835;SDS011;66719;51.226;6.902;2023-03-01T07:54:25;27.83;;;13.00;;
4835;SDS011;66719;51.226;6.902;2023-03-01T07:56:52;23.83;;;12.47;;
4835;SDS011;66719;51.226;6.902;2023-03-01T07:59:20;25.27;;;11.90;;
4835;SDS011;66719;51.226;6.902;2023-03-01T08:01:47;23.23;;;12.43;;
4835;SDS011;66719;51.226;6.902;2023-03-01T08:04:13;28.80;;;12.80;;
4835;SDS011;66719;51.226;6.902;2023-03-01T08:06:40;24.20;;;12.47;;
4835;SDS011;66719;51.226;6.902;2023-03-01T08:09:06;23.00;;;11.90;;
4835;SDS011;66719;51.226;6.902;2023-03-01T08:11:34;28.30;;;12.33;;
4835;SDS011;66719;51.226;6.902;2023-03-01T08:14:01;24.37;;;12.70;;
4835;SDS011;66719;51.226;6.902;2023-03-01T08:16:28;25.90;;;13.23;;
4835;SDS011;66719;51.226;6.902;2023-03-01T08:18:56;30.07;;;12.87;;
4835;SDS011;66719;51.226;6.902;2023-03-01T08:21:27;35.10;;;13.23;;
4835;SDS011;66719;51.226;6.902;2023-03-01T08:23:54;26.80;;;12.37;;
4835;SDS011;66719;51.226;6.902;2023-03-01T08:26:20;25.00;;;12.33;;
4835;SDS011;66719;51.226;6.902;2023-03-01T08:28:47;26.37;;;12.17;;
4835;SDS011;66719;51.226;6.902;2023-03-01T08:31:28;27.23;;;12.10;;
4835;SDS011;66719;51.226;6.902;2023-03-01T08:33:58;26.30;;;12.70;;
4835;SDS011;66719;51.226;6.902;2023-03-01T08:36:30;24.10;;;12.23;;
4835;SDS011;66719;51.226;6.902;2023-03-01T08:38:59;25.90;;;13.03;;
4835;SDS011;66719;51.226;6.902;2023-03-01T08:41:26;27.63;;;11.70;;
4835;SDS011;66719;51.226;6.902;2023-03-01T08:43:52;27.47;;;12.07;;
4835;SDS011;66719;51.226;6.902;2023-03-01T08:46:28;28.30;;;12.20;;
4835;SDS011;66719;51.226;6.902;2023-03-01T08:48:56;25.00;;;12.33;;
4835;SDS011;66719;51.226;6.902;2023-03-01T08:51:23;24.57;;;12.33;;
4835;SDS011;66719;51.226;6.902;2023-03-01T08:53:51;23.90;;;11.60;;
4835;SDS011;66719;51.226;6.902;2023-03-01T08:56:18;27.63;;;11.80;;
4835;SDS011;66719;51.226;6.902;2023-03-01T08:58:45;25.77;;;12.33;;
4835;SDS011;66719;51.226;6.902;2023-03-01T09:01:14;23.53;;;11.10;;
4835;SDS011;66719;51.226;6.902;2023-03-01T09:03:43;24.83;;;11.83;;
4835;SDS011;66719;51.226;6.902;2023-03-01T09:06:10;22.40;;;10.63;;
4835;SDS011;66719;51.226;6.902;2023-03-01T09:08:38;27.20;;;12.30;;
4835;SDS011;66719;51.226;6.902;2023-03-01T09:11:07;24.33;;;12.37;;
4835;SDS011;66719;51.226;6.902;2023-03-01T09:13:35;24.33;;;12.27;;
4835;SDS011;66719;51.226;6.902;2023-03-01T09:16:03;25.33;;;12.33;;
4835;SDS011;66719;51.226;6.902;2023-03-01T09:18:31;21.20;;;11.40;;
4835;SDS011;66719;51.226;6.902;2023-03-01T09:21:02;22.77;;;12.00;;
4835;SDS011;66719;51.226;6.902;2023-03-01T09:23:34;21.97;;;11.80;;
4835;SDS011;66719;51.226;6.902;2023-03-01T09:26:05;23.40;;;11.47;;
4835;SDS011;66719;51.226;6.902;2023-03-01T09:28:37;25.17;;;11.37;;
4835;SDS011;66719;51.226;6.902;2023-03-01T09:31:05;25.30;;;11.57;;
4835;SDS011;66719;51.226;6.902;2023-03-01T09:33:32;25.00;;;10.50;;
4835;SDS011;66719;51.226;6.902;2023-03-01T09:36:00;22.13;;;11.33;;
4835;SDS011;66719;51.226;6.902;2023-03-01T09:38:29;22.50;;;11.27;;
4835;SDS011;66719;51.226;6.902;2023-03-01T09:40:55;24.60;;;11.23;;
4835;SDS011;66719;51.226;6.902;2023-03-01T09:46:22;26.03;;;13.70;;
4835;SDS011;66719;51.226;6.902;2023-03-01T09:48:52;31.10;;;15.40;;
4835;SDS011;66719;51.226;6.902;2023-03-01T09:51:35;26.37;;;11.97;;
4835;SDS011;66719;51.226;6.902;2023-03-01T09:54:02;24.43;;;12.17;;
4835;SDS011;66719;51.226;6.902;2023-03-01T10:09:54;22.10;;;9.90;;
4835;SDS011;66719;51.226;6.902;2023-03-01T10:12:22;23.77;;;9.10;;
4835;SDS011;66719;51.226;6.902;2023-03-01T10:14:55;18.60;;;9.00;;
4835;SDS011;66719;51.226;6.902;2023-03-01T10:20:10;19.10;;;8.43;;
4835;SDS011;66719;51.226;6.902;2023-03-01T10:22:40;21.07;;;10.10;;
4835;SDS011;66719;51.226;6.902;2023-03-01T10:25:08;20.07;;;9.77;;
4835;SDS011;66719;51.226;6.902;2023-03-01T10:32:47;20.43;;;9.80;;
4835;SDS011;66719;51.226;6.902;2023-03-01T10:35:20;23.17;;;9.70;;
4835;SDS011;66719;51.226;6.902;2023-03-01T10:40:30;18.27;;;8.17;;
4835;SDS011;66719;51.226;6.902;2023-03-01T10:42:59;21.73;;;9.40;;
4835;SDS011;66719;51.226;6.902;2023-03-01T10:45:38;19.97;;;9.27;;
4835;SDS011;66719;51.226;6.902;2023-03-01T10:48:20;18.27;;;8.70;;
4835;SDS011;66719;51.226;6.902;2023-03-01T10:50:51;24.60;;;10.20;;
4835;SDS011;66719;51.226;6.902;2023-03-01T10:56:06;20.83;;;10.10;;
4835;SDS011;66719;51.226;6.902;2023-03-01T10:58:33;26.93;;;9.63;;
4835;SDS011;66719;51.226;6.902;2023-03-01T11:01:03;19.33;;;9.33;;
4835;SDS011;66719;51.226;6.902;2023-03-01T11:03:41;19.80;;;9.07;;
4835;SDS011;66719;51.226;6.902;2023-03-01T11:13:35;19.27;;;10.43;;
4835;SDS011;66719;51.226;6.902;2023-03-01T11:16:10;20.20;;;9.27;;
4835;SDS011;66719;51.226;6.902;2023-03-01T11:18:38;24.00;;;9.27;;
4835;SDS011;66719;51.226;6.902;2023-03-01T11:21:14;20.20;;;10.20;;
4835;SDS011;66719;51.226;6.902;2023-03-01T11:23:42;22.67;;;10.07;;
4835;SDS011;66719;51.226;6.902;2023-03-01T11:26:12;23.03;;;10.23;;
4835;SDS011;66719;51.226;6.902;2023-03-01T11:28:39;21.00;;;9.60;;
4835;SDS011;66719;51.226;6.902;2023-03-01T11:31:09;20.53;;;9.80;;
4835;SDS011;66719;51.226;6.902;2023-03-01T11:33:43;21.70;;;9.90;;
4835;SDS011;66719;51.226;6.902;2023-03-01T11:36:31;19.87;;;10.20;;
4835;SDS011;66719;51.226;6.902;2023-03-01T11:39:10;23.70;;;11.80;;
4835;SDS011;66719;51.226;6.902;2023-03-01T11:41:48;19.73;;;9.67;;
4835;SDS011;66719;51.226;6.902;2023-03-01T11:44:26;20.67;;;9.73;;
4835;SDS011;66719;51.226;6.902;2023-03-01T11:55:07;18.40;;;9.30;;
4835;SDS011;66719;51.226;6.902;2023-03-01T12:08:38;19.50;;;9.40;;
4835;SDS011;66719;51.226;6.902;2023-03-01T12:11:12;20.70;;;8.73;;
4835;SDS011;66719;51.226;6.902;2023-03-01T12:16:36;18.70;;;9.30;;
4835;SDS011;66719;51.226;6.902;2023-03-01T12:22:20;21.30;;;9.13;;
4835;SDS011;66719;51.226;6.902;2023-03-01T12:25:00;18.50;;;8.53;;
4835;SDS011;66719;51.226;6.902;2023-03-01T12:27:47;20.50;;;8.50;;
4835;SDS011;66719;51.226;6.902;2023-03-01T12:39:10;19.20;;;8.47;;
4835;SDS011;66719;51.226;6.902;2023-03-01T12:49:49;17.10;;;6.97;;
4835;SDS011;66719;51.226;6.902;2023-03-01T12:54:49;16.00;;;6.60;;
4835;SDS011;66719;51.226;6.902;2023-03-01T13:06:38;16.80;;;7.13;;
4835;SDS011;66719;51.226;6.902;2023-03-01T13:09:27;18.23;;;8.10;;
4835;SDS011;66719;51.226;6.902;2023-03-01T13:17:48;18.60;;;7.63;;
4835;SDS011;66719;51.226;6.902;2023-03-01T13:20:21;16.93;;;7.73;;
4835;SDS011;66719;51.226;6.902;2023-03-01T13:23:03;14.80;;;6.67;;
4835;SDS011;66719;51.226;6.902;2023-03-01T13:28:50;17.57;;;7.40;;
4835;SDS011;66719;51.226;6.902;2023-03-01T13:33:52;22.30;;;7.30;;
4835;SDS011;66719;51.226;6.902;2023-03-01T13:42:25;15.90;;;6.30;;
4835;SDS011;66719;51.226;6.902;2023-03-01T13:49:45;17.10;;;7.30;;
4835;SDS011;66719;51.226;6.902;2023-03-01T13:57:41;16.47;;;6.40;;
4835;SDS011;66719;51.226;6.902;2023-03-01T14:03:01;14.83;;;6.20;;
4835;SDS011;66719;51.226;6.902;2023-03-01T14:05:32;16.37;;;7.30;;
4835;SDS011;66719;51.226;6.902;2023-03-01T14:07:58;15.90;;;6.63;;
4835;SDS011;66719;51.226;6.902;2023-03-01T14:10:31;16.60;;;6.53;;
4835;SDS011;66719;51.226;6.902;2023-03-01T14:16:24;16.67;;;8.00;;
4835;SDS011;66719;51.226;6.902;2023-03-01T14:19:16;19.30;;;7.30;;
4835;SDS011;66719;51.226;6.902;2023-03-01T14:24:49;20.87;;;7.70;;
4835;SDS011;66719;51.226;6.902;2023-03-01T14:27:18;16.13;;;7.40;;
4835;SDS011;66719;51.226;6.902;2023-03-01T14:29:53;23.10;;;7.13;;
4835;SDS011;66719;51.226;6.902;2023-03-01T14:32:26;20.07;;;7.57;;
4835;SDS011;66719;51.226;6.902;2023-03-01T14:34:57;15.63;;;6.83;;
4835;SDS011;66719;51.226;6.902;2023-03-01T14:37:29;15.40;;;7.50;;
4835;SDS011;66719;51.226;6.902;2023-03-01T14:39:58;16.60;;;6.43;;
4835;SDS011;66719;51.226;6.902;2023-03-01T14:42:28;17.70;;;7.20;;
4835;SDS011;66719;51.226;6.902;2023-03-01T14:45:00;16.33;;;7.03;;
4835;SDS011;66719;51.226;6.902;2023-03-01T14:47:29;18.27;;;6.93;;
4835;SDS011;66719;51.226;6.902;2023-03-01T14:49:59;14.93;;;6.60;;
4835;SDS011;66719;51.226;6.902;2023-03-01T14:52:32;16.63;;;7.47;;
4835;SDS011;66719;51.226;6.902;2023-03-01T14:55:01;15.83;;;7.03;;
4835;SDS011;66719;51.226;6.902;2023-03-01T14:57:29;17.90;;;7.27;;
4835;SDS011;66719;51.226;6.902;2023-03-01T15:00:00;16.93;;;6.20;;
4835;SDS011;66719;51.226;6.902;2023-03-01T15:02:31;16.50;;;6.70;;
4835;SDS011;66719;51.226;6.902;2023-03-01T15:05:00;16.87;;;7.10;;
4835;SDS011;66719;51.226;6.902;2023-03-01T15:07:34;15.73;;;7.80;;
4835;SDS011;66719;51.226;6.902;2023-03-01T15:10:06;16.13;;;7.50;;
4835;SDS011;66719;51.226;6.902;2023-03-01T15:12:41;15.20;;;6.33;;
4835;SDS011;66719;51.226;6.902;2023-03-01T15:18:00;20.03;;;6.87;;
4835;SDS011;66719;51.226;6.902;2023-03-01T15:20:47;15.90;;;6.93;;
4835;SDS011;66719;51.226;6.902;2023-03-01T15:23:18;15.27;;;6.47;;
4835;SDS011;66719;51.226;6.902;2023-03-01T15:25:45;15.43;;;5.80;;
4835;SDS011;66719;51.226;6.902;2023-03-01T15:28:17;16.07;;;6.67;;
4835;SDS011;66719;51.226;6.902;2023-03-01T15:30:51;16.37;;;5.90;;
4835;SDS011;66719;51.226;6.902;2023-03-01T15:35:54;14.73;;;5.87;;
4835;SDS011;66719;51.226;6.902;2023-03-01T15:38:26;15.90;;;6.23;;
4835;SDS011;66719;51.226;6.902;2023-03-01T15:41:00;14.83;;;6.80;;
4835;SDS011;66719;51.226;6.902;2023-03-01T15:43:43;14.43;;;6.03;;
4835;SDS011;66719;51.226;6.902;2023-03-01T15:46:16;15.53;;;6.23;;
4835;SDS011;66719;51.226;6.902;2023-03-01T15:48:46;12.67;;;5.27;;
4835;SDS011;66719;51.226;6.902;2023-03-01T15:51:15;16.47;;;6.13;;
4835;SDS011;66719;51.226;6.902;2023-03-01T15:53:43;15.23;;;6.37;;
4835;SDS011;66719;51.226;6.902;2023-03-01T15:56:20;15.00;;;5.57;;
4835;SDS011;66719;51.226;6.902;2023-03-01T15:58:46;15.73;;;6.27;;
4835;SDS011;66719;51.226;6.902;2023-03-01T16:01:14;17.53;;;7.13;;
4835;SDS011;66719;51.226;6.902;2023-03-01T16:03:43;17.83;;;8.43;;
4835;SDS011;66719;51.226;6.902;2023-03-01T16:06:10;16.73;;;7.47;;
4835;SDS011;66719;51.226;6.902;2023-03-01T16:08:38;16.63;;;6.47;;
4835;SDS011;66719;51.226;6.902;2023-03-01T16:11:05;13.73;;;5.87;;
4835;SDS011;66719;51.226;6.902;2023-03-01T16:13:40;18.97;;;7.10;;
4835;SDS011;66719;51.226;6.902;2023-03-01T16:16:07;15.77;;;6.03;;
4835;SDS011;66719;51.226;6.902;2023-03-01T16:18:38;13.50;;;5.90;;
4835;SDS011;66719;51.226;6.902;2023-03-01T16:21:05;15.57;;;5.93;;
4835;SDS011;66719;51.226;6.902;2023-03-01T16:23:32;15.70;;;5.83;;
4835;SDS011;66719;51.226;6.902;2023-03-01T16:25:59;19.47;;;5.93;;
4835;SDS011;66719;51.226;6.902;2023-03-01T16:28:26;17.07;;;6.70;;
4835;SDS011;66719;51.226;6.902;2023-03-01T16:30:55;15.90;;;5.87;;
4835;SDS011;66719;51.226;6.902;2023-03-01T16:33:21;20.53;;;6.60;;
4835;SDS011;66719;51.226;6.902;2023-03-01T16:35:58;18.43;;;6.00;;
4835;SDS011;66719;51.226;6.902;2023-03-01T16:38:26;15.87;;;6.17;;
4835;SDS011;66719;51.226;6.902;2023-03-01T16:40:52;14.60;;;5.87;;
4835;SDS011;66719;51.226;6.902;2023-03-01T16:43:19;15.20;;;5.47;;
4835;SDS011;66719;51.226;6.902;2023-03-01T16:45:46;15.00;;;6.00;;
4835;SDS011;66719;51.226;6.902;2023-03-01T16:48:13;16.00;;;6.50;;
4835;SDS011;66719;51.226;6.902;2023-03-01T16:50:39;17.20;;;6.80;;
4835;SDS011;66719;51.226;6.902;2023-03-01T16:53:06;15.63;;;6.50;;
4835;SDS011;66719;51.226;6.902;2023-03-01T16:55:33;13.27;;;5.70;;
4835;SDS011;66719;51.226;6.902;2023-03-01T16:57:59;14.40;;;6.10;;
4835;SDS011;66719;51.226;6.902;2023-03-01T17:00:27;18.83;;;5.97;;
4835;SDS011;66719;51.226;6.902;2023-03-01T17:02:54;28.97;;;9.60;;
4835;SDS011;66719;51.226;6.902;2023-03-01T17:05:21;18.03;;;6.20;;
4835;SDS011;66719;51.226;6.902;2023-03-01T17:07:50;15.90;;;6.27;;
4835;SDS011;66719;51.226;6.902;2023-03-01T17:10:16;15.27;;;6.27;;
4835;SDS011;66719;51.226;6.902;2023-03-01T17:12:43;16.20;;;6.13;;
4835;SDS011;66719;51.226;6.902;2023-03-01T17:15:09;16.27;;;6.33;;
4835;SDS011;66719;51.226;6.902;2023-03-01T17:17:37;16.13;;;5.80;;
4835;SDS011;66719;51.226;6.902;2023-03-01T17:20:04;14.33;;;6.70;;
4835;SDS011;66719;51.226;6.902;2023-03-01T17:22:31;19.23;;;6.37;;
4835;SDS011;66719;51.226;6.902;2023-03-01T17:24:57;13.70;;;5.73;;
4835;SDS011;66719;51.226;6.902;2023-03-01T17:27:24;15.87;;;6.77;;
4835;SDS011;66719;51.226;6.902;2023-03-01T17:29:50;13.80;;;5.40;;